Time;durP1;ratioP1;P1;durP2;ratioP2;P2;SDS_P1;SDS_P2;PMS_P1;PMS_P2;Temp;Humidity;BMP_temperature;BMP_pressure;BME280_temperature;BME280_humidity;BME280_pressure;Samples;Min_cycle;Max_cycle;Signal;HPM_P1;HPM_P2
2021/12/13 00:02:03;;;;;;;7.47;4.87;;;;;;;7.96;66.32;97640.38;5046409;28;20944;-65
2021/12/13 00:04:40;;;;;;;6.73;4.93;;;;;;;8.06;66.36;97646.53;5055000;28;20442;-68
2021/12/13 00:07:16;;;;;;;9.80;4.73;;;;;;;8.35;65.12;97639.84;5069214;28;20554;-66
2021/12/13 00:09:44;;;;;;;10.37;6.93;;;;;;;8.33;65.67;97642.56;5048906;28;20425;-69
2021/12/13 00:12:11;;;;;;;11.87;4.77;;;;;;;8.01;66.74;97638.25;5068112;28;20408;-67
2021/12/13 00:14:45;;;;;;;7.90;4.33;;;;;;;8.23;66.76;97645.16;5057405;28;20991;-69
2021/12/13 00:17:14;;;;;;;5.80;4.17;;;;;;;8.20;66.96;97641.94;5067593;28;20441;-65
2021/12/13 00:19:46;;;;;;;6.53;4.27;;;;;;;8.33;65.78;97641.75;5059712;28;20422;-68
2021/12/13 00:22:19;;;;;;;7.43;4.77;;;;;;;8.19;66.00;97635.09;5051535;28;20429;-65
2021/12/13 00:24:47;;;;;;;5.67;4.30;;;;;;;8.21;66.33;97638.38;5062782;28;20462;-67
2021/12/13 00:27:26;;;;;;;7.50;4.67;;;;;;;8.18;66.80;97633.44;5066210;28;20440;-66
2021/12/13 00:29:59;;;;;;;7.13;4.30;;;;;;;8.41;66.51;97637.56;5069311;28;20414;-67
2021/12/13 00:32:33;;;;;;;10.00;4.50;;;;;;;8.49;66.44;97641.34;5066403;28;20513;-66
2021/12/13 00:35:00;;;;;;;7.63;4.23;;;;;;;8.42;67.00;97631.38;5058482;28;20440;-66
2021/12/13 00:37:41;;;;;;;9.40;4.40;;;;;;;8.51;66.41;97626.38;5066371;28;20976;-67
2021/12/13 00:40:11;;;;;;;7.37;4.13;;;;;;;8.30;66.79;97630.59;5053075;28;20931;-66
2021/12/13 00:42:47;;;;;;;9.13;5.37;;;;;;;8.41;66.83;97634.94;5051191;28;20430;-66
2021/12/13 00:45:15;;;;;;;8.10;4.87;;;;;;;8.47;66.25;97644.06;5048810;28;20507;-68
2021/12/13 00:47:42;;;;;;;8.63;4.70;;;;;;;8.50;66.88;97643.00;5046152;28;20442;-66
2021/12/13 00:50:16;;;;;;;10.03;4.57;;;;;;;8.58;66.87;97640.56;5051824;28;20424;-66
2021/12/13 00:52:43;;;;;;;7.60;4.57;;;;;;;8.50;67.09;97640.38;5044203;28;20427;-66
2021/12/13 00:55:17;;;;;;;5.90;4.23;;;;;;;8.45;66.83;97644.16;5045339;28;20418;-66
2021/12/13 00:57:49;;;;;;;6.10;4.60;;;;;;;8.53;66.61;97648.78;5041571;28;20438;-66
2021/12/13 01:00:26;;;;;;;15.90;4.83;;;;;;;8.54;66.82;97641.78;5060090;28;20817;-67
2021/12/13 01:03:15;;;;;;;6.80;4.73;;;;;;;8.60;66.64;97643.88;5060844;28;20428;-65
2021/12/13 01:05:41;;;;;;;11.23;4.80;;;;;;;8.58;66.42;97645.78;5065835;28;20456;-67
2021/12/13 01:08:11;;;;;;;8.23;4.67;;;;;;;8.51;66.71;97649.88;5071260;28;20757;-67
2021/12/13 01:10:42;;;;;;;10.33;5.43;;;;;;;8.54;66.75;97645.22;5063953;28;20317;-66
2021/12/13 01:13:37;;;;;;;44.73;26.40;;;;;;;8.56;67.40;97653.75;5064033;28;20429;-68
2021/12/13 01:16:37;;;;;;;33.30;18.67;;;;;;;8.64;66.86;97644.44;5062996;28;20866;-67
2021/12/13 01:21:56;;;;;;;12.30;8.60;;;;;;;8.79;66.87;97651.00;5058049;28;20714;-68
2021/12/13 01:25:14;;;;;;;7.17;5.30;;;;;;;8.81;67.47;97653.50;5070944;28;20423;-68
2021/12/13 01:27:35;;;;;;;9.90;4.90;;;;;;;8.78;66.69;97648.53;5050106;28;20849;-69
2021/12/13 01:30:03;;;;;;;9.80;4.73;;;;;;;8.82;67.28;97655.97;5062782;28;20432;-65
2021/12/13 01:32:39;;;;;;;6.50;4.40;;;;;;;8.81;67.01;97658.72;5071146;28;20439;-67
2021/12/13 01:35:09;;;;;;;10.40;5.10;;;;;;;8.80;67.17;97664.91;5047424;28;20411;-66
2021/12/13 01:37:34;;;;;;;10.73;5.10;;;;;;;8.86;66.65;97659.97;5062014;28;21008;-66
2021/12/13 01:40:07;;;;;;;10.20;5.23;;;;;;;8.88;66.41;97659.84;5063497;28;20444;-67
2021/12/13 01:42:33;;;;;;;7.50;4.90;;;;;;;8.86;66.61;97664.38;5058868;28;20182;-67
2021/12/13 01:45:03;;;;;;;7.33;4.90;;;;;;;8.79;66.99;97663.25;5067425;28;20990;-67
2021/12/13 01:47:35;;;;;;;7.80;4.90;;;;;;;8.75;66.58;97667.91;5055278;28;20734;-68
2021/12/13 01:50:07;;;;;;;8.57;5.10;;;;;;;8.71;67.38;97659.47;5064039;28;20789;-66
2021/12/13 01:52:35;;;;;;;8.60;5.30;;;;;;;8.74;67.40;97656.59;5066040;28;20428;-68
2021/12/13 01:55:09;;;;;;;16.97;5.03;;;;;;;8.79;67.07;97669.28;5055194;28;20420;-66
2021/12/13 01:57:41;;;;;;;7.07;4.60;;;;;;;8.67;67.53;97660.72;5054959;28;20491;-66
2021/12/13 02:00:21;;;;;;;10.40;5.50;;;;;;;8.65;67.40;97662.63;5053153;28;20479;-66
2021/12/13 02:02:54;;;;;;;8.63;4.37;;;;;;;8.72;67.67;97670.78;5062298;28;20843;-68
2021/12/13 02:05:28;;;;;;;7.00;5.00;;;;;;;8.79;67.71;97666.66;5056551;28;20522;-66
2021/12/13 02:08:10;;;;;;;8.73;5.33;;;;;;;8.82;66.81;97660.38;5070031;28;20915;-67
2021/12/13 02:10:49;;;;;;;8.47;4.53;;;;;;;8.76;66.93;97659.94;5062454;28;20437;-66
2021/12/13 02:13:17;;;;;;;6.70;4.87;;;;;;;8.85;67.07;97660.09;5050323;28;20423;-66
2021/12/13 02:18:33;;;;;;;6.33;4.70;;;;;;;8.83;67.19;97651.56;5058019;28;20428;-67
2021/12/13 02:21:07;;;;;;;6.57;4.37;;;;;;;8.71;66.72;97654.25;5053994;28;20503;-68
2021/12/13 02:23:37;;;;;;;9.47;5.00;;;;;;;8.62;66.82;97649.81;5054759;28;20765;-67
2021/12/13 02:26:04;;;;;;;7.07;4.60;;;;;;;8.48;67.63;97647.50;5048770;28;20463;-67
2021/12/13 02:28:33;;;;;;;5.23;4.40;;;;;;;8.41;67.32;97648.00;5073494;28;20789;-67
2021/12/13 02:31:10;;;;;;;10.80;4.80;;;;;;;8.50;67.38;97650.84;5065807;28;20503;-68
2021/12/13 02:33:53;;;;;;;6.63;4.97;;;;;;;8.52;67.77;97651.53;5054367;28;20454;-66
2021/12/13 02:36:22;;;;;;;9.17;4.80;;;;;;;8.51;67.58;97661.16;5054291;28;20440;-66
2021/12/13 02:38:49;;;;;;;7.60;4.40;;;;;;;8.60;67.55;97656.94;5064705;28;20483;-67
2021/12/13 02:41:18;;;;;;;8.33;4.40;;;;;;;8.53;66.63;97663.66;5064764;28;20528;-68
2021/12/13 02:43:48;;;;;;;6.40;5.00;;;;;;;8.50;67.61;97664.75;5062571;28;20468;-67
2021/12/13 02:46:14;;;;;;;7.10;4.97;;;;;;;8.43;67.33;97663.53;5054665;28;20461;-68
2021/12/13 02:48:50;;;;;;;6.90;4.40;;;;;;;8.50;67.43;97662.13;5070045;28;20420;-67
2021/12/13 02:51:31;;;;;;;6.47;4.60;;;;;;;8.50;66.88;97669.97;5064385;28;20452;-66
2021/12/13 02:54:11;;;;;;;8.27;4.97;;;;;;;8.56;67.13;97663.41;5062229;28;20460;-67
2021/12/13 02:56:43;;;;;;;8.83;5.20;;;;;;;8.58;67.05;97667.53;5067067;28;20806;-66
2021/12/13 02:59:10;;;;;;;7.40;4.27;;;;;;;8.43;66.86;97663.53;5053776;28;20432;-66
2021/12/13 03:01:48;;;;;;;5.07;4.07;;;;;;;8.52;67.00;97656.75;5062220;28;20416;-69
2021/12/13 03:04:18;;;;;;;8.87;4.10;;;;;;;8.45;66.91;97659.03;5048393;28;20941;-67
2021/12/13 03:07:04;;;;;;;4.87;3.87;;;;;;;8.43;67.53;97660.94;5072286;28;20440;-69
2021/12/13 03:09:32;;;;;;;10.00;4.33;;;;;;;8.46;67.47;97664.13;5057025;28;20425;-68
2021/12/13 03:12:01;;;;;;;6.93;5.07;;;;;;;8.51;67.26;97652.50;5056404;28;20911;-66
2021/12/13 03:14:43;;;;;;;8.63;4.60;;;;;;;8.46;66.83;97658.06;5065856;28;20449;-67
2021/12/13 03:17:42;;;;;;;8.90;4.83;;;;;;;8.57;67.25;97654.56;5060161;28;20451;-68
2021/12/13 03:20:56;;;;;;;8.13;4.73;;;;;;;8.48;66.45;97656.19;5054291;28;20417;-66
2021/12/13 03:23:24;;;;;;;6.73;4.57;;;;;;;8.53;66.33;97654.00;5061883;28;20816;-66
2021/12/13 03:26:24;;;;;;;7.70;5.17;;;;;;;8.58;66.44;97656.22;5061535;28;20578;-65
2021/12/13 03:28:56;;;;;;;9.70;5.00;;;;;;;8.62;66.15;97652.41;5063519;28;20420;-68
2021/12/13 03:31:26;;;;;;;9.23;4.90;;;;;;;8.65;65.95;97657.38;5073770;28;20508;-69
2021/12/13 03:33:58;;;;;;;8.60;5.70;;;;;;;8.75;65.49;97662.69;5077498;28;20436;-66
2021/12/13 03:36:58;;;;;;;8.63;5.30;;;;;;;8.75;65.33;97660.88;5078949;28;20448;-67
2021/12/13 03:39:31;;;;;;;8.03;6.20;;;;;;;8.80;65.33;97655.25;5050626;28;20412;-68
2021/12/13 03:41:58;;;;;;;6.10;5.50;;;;;;;8.83;65.37;97662.00;5061978;28;20436;-68
2021/12/13 03:44:30;;;;;;;10.20;6.60;;;;;;;8.82;65.15;97663.00;5059690;28;20416;-66
2021/12/13 03:47:06;;;;;;;10.27;7.90;;;;;;;8.84;65.07;97661.06;5066302;28;20531;-67
2021/12/13 03:49:35;;;;;;;10.00;7.30;;;;;;;8.86;64.85;97656.53;5072650;28;20844;-66
2021/12/13 03:52:02;;;;;;;7.37;6.10;;;;;;;8.88;65.11;97657.22;5071179;28;20413;-67
2021/12/13 03:54:31;;;;;;;7.53;5.57;;;;;;;8.89;64.71;97656.28;5074487;28;20429;-68
2021/12/13 03:56:57;;;;;;;7.73;5.90;;;;;;;8.84;65.36;97647.97;5060521;28;20449;-65
2021/12/13 03:59:27;;;;;;;6.90;5.13;;;;;;;8.92;64.64;97658.63;5048588;28;20430;-65
2021/12/13 04:01:57;;;;;;;10.73;6.07;;;;;;;8.94;63.98;97666.34;5063018;28;20178;-68
2021/12/13 04:04:36;;;;;;;8.20;4.87;;;;;;;8.98;64.38;97665.94;5060065;28;20533;-65
2021/12/13 04:07:09;;;;;;;8.67;5.30;;;;;;;8.95;64.10;97663.56;5072664;28;20502;-67
2021/12/13 04:09:35;;;;;;;6.90;5.20;;;;;;;8.93;64.15;97665.53;5039399;28;20438;-68
2021/12/13 04:12:04;;;;;;;7.90;5.60;;;;;;;9.01;63.70;97660.47;5055259;28;20512;-66
2021/12/13 04:14:48;;;;;;;5.50;4.70;;;;;;;9.00;63.73;97661.41;5065879;28;20428;-66
2021/12/13 04:17:22;;;;;;;9.50;5.73;;;;;;;9.05;63.68;97666.25;5071442;28;20440;-65
2021/12/13 04:19:55;;;;;;;6.50;4.70;;;;;;;8.96;64.03;97670.47;5052533;28;20439;-67
2021/12/13 04:22:28;;;;;;;7.53;5.20;;;;;;;8.97;63.73;97669.50;5061097;28;20434;-66
2021/12/13 04:25:17;;;;;;;7.30;5.27;;;;;;;8.97;63.89;97661.66;5071799;28;20463;-67
2021/12/13 04:27:59;;;;;;;8.10;4.80;;;;;;;8.99;64.33;97662.38;5059636;28;20449;-66
2021/12/13 04:30:51;;;;;;;5.53;4.50;;;;;;;9.07;63.87;97672.97;5072457;28;20880;-69
2021/12/13 04:33:36;;;;;;;5.57;4.20;;;;;;;9.01;64.02;97667.47;5053587;28;20454;-69
2021/12/13 04:36:24;;;;;;;7.43;4.27;;;;;;;8.88;64.43;97670.28;5065240;28;20456;-67
2021/12/13 04:38:53;;;;;;;6.00;4.57;;;;;;;8.78;65.43;97682.50;5045399;28;20421;-67
2021/12/13 04:41:34;;;;;;;4.63;3.90;;;;;;;8.60;66.20;97675.22;5059383;28;20425;-67
2021/12/13 04:44:04;;;;;;;4.63;4.00;;;;;;;8.88;64.90;97688.59;5065747;28;20425;-67
2021/12/13 04:46:31;;;;;;;8.20;3.70;;;;;;;8.87;65.49;97681.72;5064758;28;20926;-67
2021/12/13 04:49:00;;;;;;;7.90;4.67;;;;;;;8.87;65.28;97686.94;5063151;28;22289;-69
2021/12/13 04:51:31;;;;;;;7.87;3.87;;;;;;;8.91;64.58;97693.56;5065241;28;20509;-67
2021/12/13 04:53:59;;;;;;;10.70;4.30;;;;;;;9.00;65.12;97687.56;5059952;28;20414;-66
2021/12/13 04:56:28;;;;;;;4.37;3.97;;;;;;;9.10;65.06;97684.16;5046340;28;20450;-66
2021/12/13 04:58:55;;;;;;;6.90;3.90;;;;;;;9.07;64.34;97688.69;5052272;28;20433;-66
2021/12/13 05:01:23;;;;;;;6.50;4.10;;;;;;;9.05;64.40;97684.53;5061950;28;20424;-66
2021/12/13 05:03:53;;;;;;;7.13;4.00;;;;;;;9.06;64.09;97692.28;5049189;28;20517;-68
2021/12/13 05:06:22;;;;;;;5.87;4.47;;;;;;;8.96;64.83;97691.38;5059733;28;20492;-66
2021/12/13 05:08:50;;;;;;;8.07;4.20;;;;;;;9.09;64.63;97688.56;5048687;28;20429;-68
2021/12/13 05:11:16;;;;;;;4.40;4.00;;;;;;;9.16;64.84;97689.69;5043269;28;20414;-67
2021/12/13 05:13:52;;;;;;;5.83;3.97;;;;;;;9.21;64.63;97692.75;5059787;28;20428;-66
2021/12/13 05:16:25;;;;;;;10.17;4.60;;;;;;;9.24;63.87;97698.69;5061629;28;20198;-66
2021/12/13 05:18:54;;;;;;;4.73;4.27;;;;;;;9.25;63.98;97693.31;5062845;28;20432;-70
2021/12/13 05:21:27;;;;;;;5.80;4.17;;;;;;;9.23;64.52;97692.59;5068456;28;20915;-66
2021/12/13 05:23:57;;;;;;;5.57;4.13;;;;;;;9.20;64.90;97703.31;5061431;28;20789;-66
2021/12/13 05:26:31;;;;;;;8.43;4.40;;;;;;;9.23;64.73;97697.84;5061381;28;20464;-67
2021/12/13 05:28:57;;;;;;;5.83;5.17;;;;;;;9.32;64.92;97701.44;5065564;28;20429;-67
2021/12/13 05:31:26;;;;;;;9.40;5.07;;;;;;;9.34;64.40;97705.59;5058625;28;20517;-66
2021/12/13 05:33:55;;;;;;;7.63;5.40;;;;;;;9.26;64.84;97704.59;5059138;28;20416;-66
2021/12/13 05:36:24;;;;;;;9.10;5.90;;;;;;;9.19;64.59;97709.53;5064074;28;20531;-66
2021/12/13 05:39:04;;;;;;;8.40;5.50;;;;;;;9.09;64.88;97712.09;5051765;28;20429;-67
2021/12/13 05:41:30;;;;;;;12.77;6.10;;;;;;;9.17;65.38;97708.84;5049795;28;20430;-66
2021/12/13 05:43:59;;;;;;;10.40;5.87;;;;;;;9.16;65.33;97712.41;5060172;28;20427;-67
2021/12/13 05:46:33;;;;;;;12.13;5.73;;;;;;;9.07;65.22;97720.06;5063745;28;20297;-67
2021/12/13 05:49:01;;;;;;;10.20;6.20;;;;;;;9.16;65.00;97720.25;5063295;28;20425;-66
2021/12/13 05:51:37;;;;;;;8.13;6.77;;;;;;;9.22;64.78;97722.31;5050856;28;20515;-66
2021/12/13 05:54:11;;;;;;;14.23;9.60;;;;;;;9.16;64.82;97722.88;5054369;28;20975;-66
2021/12/13 05:56:43;;;;;;;11.10;8.57;;;;;;;9.14;64.72;97730.00;5066692;28;20826;-67
2021/12/13 05:59:25;;;;;;;8.30;7.23;;;;;;;9.05;65.03;97726.38;5054270;28;20985;-66
2021/12/13 06:02:14;;;;;;;8.67;6.37;;;;;;;9.09;64.98;97730.41;5069167;28;20420;-66
2021/12/13 06:05:00;;;;;;;7.77;6.20;;;;;;;9.12;64.44;97729.31;5052733;28;20979;-67
2021/12/13 06:07:32;;;;;;;7.90;6.23;;;;;;;9.16;64.69;97739.38;5050365;28;20460;-67
2021/12/13 06:10:08;;;;;;;10.57;6.07;;;;;;;9.27;64.66;97743.69;5047638;28;21047;-66
2021/12/13 06:12:56;;;;;;;14.40;6.80;;;;;;;9.24;64.36;97741.34;5058533;28;20432;-67
2021/12/13 06:15:28;;;;;;;14.40;10.77;;;;;;;9.28;64.31;97742.75;5052629;28;20491;-67
2021/12/13 06:17:58;;;;;;;15.43;12.57;;;;;;;9.31;63.98;97741.66;5066846;28;20440;-70
2021/12/13 06:20:23;;;;;;;21.50;13.97;;;;;;;9.40;64.06;97740.03;5051555;28;20475;-66
2021/12/13 06:22:49;;;;;;;10.93;8.20;;;;;;;9.42;63.62;97738.13;5060137;28;20433;-67
2021/12/13 06:25:22;;;;;;;9.40;6.53;;;;;;;9.44;63.89;97741.44;5064975;28;20206;-68
2021/12/13 06:27:55;;;;;;;10.43;6.13;;;;;;;9.40;63.55;97735.63;5067309;28;20206;-67
2021/12/13 06:30:26;;;;;;;7.33;6.03;;;;;;;9.40;63.81;97735.63;5065072;28;20915;-65
2021/12/13 06:32:58;;;;;;;9.40;6.80;;;;;;;9.31;63.68;97739.03;5068752;28;20447;-67
2021/12/13 06:35:42;;;;;;;9.73;6.13;;;;;;;9.36;63.54;97742.09;5057975;28;20425;-69
2021/12/13 06:38:20;;;;;;;10.50;6.90;;;;;;;9.28;63.63;97741.91;5057957;28;20525;-66
2021/12/13 06:40:54;;;;;;;14.03;6.97;;;;;;;9.22;63.87;97738.88;5070714;28;20497;-66
2021/12/13 06:43:37;;;;;;;12.73;9.70;;;;;;;9.30;63.99;97740.84;5061560;28;20425;-67
2021/12/13 06:46:08;;;;;;;15.93;9.50;;;;;;;9.26;63.88;97742.03;5051579;28;20457;-68
2021/12/13 06:48:46;;;;;;;15.33;8.00;;;;;;;9.10;65.10;97739.06;5059160;28;20453;-68
2021/12/13 06:51:15;;;;;;;11.60;7.60;;;;;;;9.25;64.68;97742.19;5053348;28;20452;-66
2021/12/13 06:53:41;;;;;;;13.30;7.90;;;;;;;9.31;64.70;97742.50;5070085;28;20527;-68
2021/12/13 06:56:23;;;;;;;12.50;7.90;;;;;;;9.29;64.42;97733.09;5050767;28;20495;-67
2021/12/13 06:58:51;;;;;;;17.90;9.47;;;;;;;9.26;65.38;97736.00;5041186;28;20436;-71
2021/12/13 07:01:17;;;;;;;11.90;8.17;;;;;;;9.27;65.36;97745.47;5062902;28;20923;-69
2021/12/13 07:03:56;;;;;;;23.33;13.90;;;;;;;9.33;65.03;97751.00;5070078;28;20436;-67
2021/12/13 07:06:22;;;;;;;15.33;10.50;;;;;;;9.35;64.86;97754.31;5056369;28;20484;-66
2021/12/13 07:09:04;;;;;;;12.97;8.40;;;;;;;9.18;65.58;97744.50;5068752;28;20427;-67
2021/12/13 07:11:45;;;;;;;22.33;9.07;;;;;;;9.32;64.96;97757.22;5061509;28;20440;-65
2021/12/13 07:14:14;;;;;;;15.17;9.10;;;;;;;9.25;65.37;97757.88;5054190;28;20489;-67
2021/12/13 07:16:46;;;;;;;11.80;8.27;;;;;;;9.20;65.13;97750.41;5066275;28;20775;-66
2021/12/13 07:19:19;;;;;;;12.37;8.37;;;;;;;9.29;65.23;97749.63;5065355;28;20428;-66
2021/12/13 07:22:03;;;;;;;12.33;7.10;;;;;;;9.25;65.53;97753.47;5071530;28;20435;-65
2021/12/13 07:24:44;;;;;;;10.90;7.63;;;;;;;9.32;65.73;97749.38;5060702;28;20443;-64
2021/12/13 07:27:21;;;;;;;14.03;7.90;;;;;;;9.36;65.51;97749.94;5045948;28;20453;-66
2021/12/13 07:30:04;;;;;;;15.37;8.10;;;;;;;9.42;65.28;97753.81;5036530;28;20465;-65
2021/12/13 07:32:37;;;;;;;17.87;8.30;;;;;;;9.35;65.71;97753.50;5064370;28;20491;-69
2021/12/13 07:35:08;;;;;;;15.10;8.73;;;;;;;9.38;65.38;97756.69;5049647;28;20424;-68
2021/12/13 07:37:44;;;;;;;10.67;8.00;;;;;;;9.46;65.41;97749.97;5065581;28;20964;-67
2021/12/13 07:40:28;;;;;;;13.17;8.67;;;;;;;9.47;65.06;97751.63;5057196;28;20449;-66
2021/12/13 07:43:18;;;;;;;15.70;9.10;;;;;;;9.30;65.89;97755.69;5056877;28;20772;-68
2021/12/13 07:45:55;;;;;;;14.43;8.50;;;;;;;9.15;65.81;97765.66;5062701;28;20461;-67
2021/12/13 07:48:29;;;;;;;13.80;9.13;;;;;;;9.14;66.34;97761.38;5054104;28;20430;-67
2021/12/13 07:51:18;;;;;;;12.60;8.67;;;;;;;9.29;66.04;97770.56;5053394;28;20447;-68
2021/12/13 07:53:46;;;;;;;22.47;8.80;;;;;;;9.36;65.94;97770.88;5061003;28;20421;-66
2021/12/13 07:56:22;;;;;;;19.13;8.90;;;;;;;9.42;66.17;97769.50;5065807;28;20432;-66
2021/12/13 07:58:56;;;;;;;20.30;9.30;;;;;;;9.58;66.28;97769.84;5061817;28;20424;-66
2021/12/13 08:01:28;;;;;;;21.07;9.10;;;;;;;9.63;66.07;97772.09;5044774;28;20437;-66
2021/12/13 08:04:00;;;;;;;29.83;9.80;;;;;;;9.62;65.38;97775.66;5041060;28;20434;-68
2021/12/13 08:06:32;;;;;;;17.93;8.83;;;;;;;9.59;65.72;97775.91;5068288;28;20476;-65
2021/12/13 08:09:00;;;;;;;10.80;7.23;;;;;;;9.64;66.16;97771.13;5055293;28;20429;-72
2021/12/13 08:11:35;;;;;;;12.37;8.40;;;;;;;9.73;66.08;97772.09;5058470;28;20456;-67
2021/12/13 08:14:00;;;;;;;17.13;8.77;;;;;;;9.80;65.80;97784.53;5057422;28;20435;-67
2021/12/13 08:16:36;;;;;;;13.03;8.30;;;;;;;9.86;65.63;97784.97;5064982;28;20445;-66
2021/12/13 08:19:23;;;;;;;21.23;11.43;;;;;;;9.83;66.01;97788.66;5074979;28;20227;-66
2021/12/13 08:21:56;;;;;;;18.93;9.50;;;;;;;9.82;65.64;97787.03;5050661;28;20434;-68
2021/12/13 08:24:27;;;;;;;15.17;8.47;;;;;;;9.90;65.87;97784.56;5074234;28;20467;-66
2021/12/13 08:27:00;;;;;;;14.87;8.70;;;;;;;9.97;65.99;97780.44;5074301;28;20525;-67
2021/12/13 08:29:31;;;;;;;16.97;8.33;;;;;;;9.83;65.99;97784.25;5073699;28;20943;-66
2021/12/13 08:32:00;;;;;;;22.70;9.00;;;;;;;9.94;66.11;97788.56;5064766;28;21891;-69
2021/12/13 08:34:45;;;;;;;19.73;9.23;;;;;;;9.92;65.48;97782.63;5057147;28;20536;-66
2021/12/13 08:37:18;;;;;;;20.00;9.67;;;;;;;10.02;65.73;97777.41;5055041;28;20453;-65
2021/12/13 08:39:47;;;;;;;23.30;16.07;;;;;;;10.10;65.80;97779.34;5054486;28;20447;-66
2021/12/13 08:42:19;;;;;;;23.50;14.90;;;;;;;10.16;65.70;97786.69;5066125;28;20481;-65
2021/12/13 08:44:46;;;;;;;22.07;11.90;;;;;;;10.12;65.95;97787.91;5064088;28;20410;-67
2021/12/13 08:47:18;;;;;;;16.73;10.33;;;;;;;10.17;65.85;97783.09;5080840;28;20535;-66
2021/12/13 08:49:49;;;;;;;19.77;10.00;;;;;;;10.22;65.39;97793.97;5068480;28;20429;-67
2021/12/13 08:52:17;;;;;;;21.20;10.33;;;;;;;9.96;66.04;97798.91;5068223;28;20421;-67
2021/12/13 08:55:11;;;;;;;22.03;9.13;;;;;;;10.02;66.56;97795.72;5074522;28;20479;-66
2021/12/13 08:58:07;;;;;;;18.37;9.37;;;;;;;10.27;66.10;97794.41;5074531;28;20477;-65
2021/12/13 09:01:03;;;;;;;18.97;9.30;;;;;;;10.22;66.06;97801.84;5060496;28;20422;-68
2021/12/13 09:03:45;;;;;;;17.60;8.70;;;;;;;10.17;66.44;97790.13;5058922;28;20432;-65
2021/12/13 09:06:25;;;;;;;23.73;11.67;;;;;;;10.32;66.56;97808.91;5046954;28;20951;-66
2021/12/13 09:09:12;;;;;;;26.80;12.67;;;;;;;10.34;66.14;97802.56;5056459;28;20920;-65
2021/12/13 09:11:57;;;;;;;17.60;8.67;;;;;;;10.44;65.95;97807.84;5062861;28;20432;-67
2021/12/13 09:14:39;;;;;;;15.20;8.30;;;;;;;10.58;65.60;97812.69;5064363;28;20420;-65
2021/12/13 09:17:21;;;;;;;16.13;8.90;;;;;;;10.62;65.58;97808.00;5056223;28;20433;-64
2021/12/13 09:19:55;;;;;;;15.57;8.93;;;;;;;10.52;65.92;97804.56;5062967;28;20431;-65
2021/12/13 09:22:44;;;;;;;17.70;8.77;;;;;;;10.53;65.50;97816.66;5059049;28;20436;-69
2021/12/13 09:25:21;;;;;;;15.23;7.20;;;;;;;10.64;65.56;97821.78;5060203;28;20468;-66
2021/12/13 09:27:46;;;;;;;11.67;7.00;;;;;;;10.87;64.91;97814.47;5069752;28;20869;-64
2021/12/13 09:30:12;;;;;;;18.37;10.30;;;;;;;10.84;64.95;97822.59;5068386;28;20432;-68
2021/12/13 09:32:49;;;;;;;18.00;9.37;;;;;;;10.79;65.18;97826.59;5063943;28;20205;-68
2021/12/13 09:35:21;;;;;;;12.83;8.40;;;;;;;10.91;64.68;97820.25;5054605;28;20221;-65
2021/12/13 09:37:48;;;;;;;14.70;8.00;;;;;;;11.05;64.50;97813.75;5063127;28;20445;-65
2021/12/13 09:40:15;;;;;;;19.30;7.83;;;;;;;10.91;64.64;97815.00;5006728;28;20453;-66
2021/12/13 09:42:51;;;;;;;23.80;8.17;;;;;;;10.94;64.91;97809.47;5036512;28;20874;-65
2021/12/13 09:45:27;;;;;;;16.73;9.20;;;;;;;11.26;64.25;97812.75;5054395;28;20456;-64
2021/12/13 09:47:53;;;;;;;17.43;7.70;;;;;;;11.08;64.12;97810.88;5071807;28;20528;-65
2021/12/13 09:50:24;;;;;;;11.93;6.97;;;;;;;11.16;64.27;97803.09;5055028;28;20437;-66
2021/12/13 09:53:00;;;;;;;13.23;8.40;;;;;;;11.20;64.13;97806.28;5046914;28;21286;-66
2021/12/13 09:55:25;;;;;;;15.80;8.60;;;;;;;11.12;64.54;97801.72;5064903;28;20420;-68
2021/12/13 09:58:04;;;;;;;21.73;12.00;;;;;;;11.16;64.75;97803.09;5069712;28;20455;-67
2021/12/13 10:00:47;;;;;;;10.00;6.87;;;;;;;11.15;65.07;97790.97;5057437;28;20186;-66
2021/12/13 10:03:56;;;;;;;14.33;7.70;;;;;;;11.13;65.33;97790.28;5051355;28;20460;-66
2021/12/13 10:06:36;;;;;;;11.70;7.43;;;;;;;11.03;65.71;97781.59;5056109;28;20476;-66
2021/12/13 10:09:21;;;;;;;12.80;6.70;;;;;;;11.09;65.63;97788.88;5062017;28;20428;-65
2021/12/13 10:11:51;;;;;;;10.37;6.10;;;;;;;11.19;65.65;97781.84;5062370;28;20417;-66
2021/12/13 10:14:21;;;;;;;13.47;8.50;;;;;;;11.26;65.42;97778.63;5057775;28;20433;-65
2021/12/13 10:16:49;;;;;;;13.73;8.30;;;;;;;11.22;65.83;97781.53;5060108;28;20966;-66
2021/12/13 10:19:20;;;;;;;19.60;6.20;;;;;;;11.27;65.55;97780.28;5069885;28;20467;-67
2021/12/13 10:21:47;;;;;;;12.00;7.83;;;;;;;11.09;66.54;97775.75;5060607;28;20725;-70
2021/12/13 10:24:21;;;;;;;12.70;8.10;;;;;;;11.41;65.74;97774.59;5035289;28;20798;-66
2021/12/13 10:26:48;;;;;;;15.33;6.97;;;;;;;11.56;65.57;97784.63;5060121;28;20503;-65
2021/12/13 10:29:16;;;;;;;7.23;5.70;;;;;;;11.71;65.01;97780.56;5050031;28;20586;-66
2021/12/13 10:31:45;;;;;;;6.33;3.90;;;;;;;11.83;64.64;97776.75;5057364;28;20437;-68
2021/12/13 10:34:17;;;;;;;20.30;13.87;;;;;;;11.57;65.20;97773.16;5062362;28;20433;-68
2021/12/13 10:36:50;;;;;;;30.73;18.90;;;;;;;11.84;64.62;97781.00;5068522;28;20453;-67
2021/12/13 10:39:20;;;;;;;13.80;9.90;;;;;;;11.76;64.61;97770.44;5052794;28;20425;-67
2021/12/13 10:41:52;;;;;;;17.50;10.93;;;;;;;11.89;64.31;97772.72;5047597;28;20433;-65
2021/12/13 10:44:26;;;;;;;8.20;6.07;;;;;;;11.80;65.31;97771.81;5052623;28;20829;-66
2021/12/13 10:46:54;;;;;;;7.00;5.33;;;;;;;11.84;64.82;97769.69;5070457;28;20472;-66
2021/12/13 10:49:23;;;;;;;9.57;4.73;;;;;;;11.50;65.98;97767.66;5075422;28;20769;-66
2021/12/13 10:51:55;;;;;;;7.53;4.60;;;;;;;11.87;65.17;97771.19;5045197;28;20452;-66
2021/12/13 10:54:24;;;;;;;8.13;4.40;;;;;;;11.79;65.41;97762.25;5061168;28;20429;-67
2021/12/13 10:57:06;;;;;;;5.70;4.67;;;;;;;12.04;64.83;97765.19;5063017;28;20471;-66
2021/12/13 10:59:33;;;;;;;11.60;8.17;;;;;;;11.88;65.27;97767.59;5052762;28;20543;-65
2021/12/13 11:02:07;;;;;;;13.10;9.90;;;;;;;11.82;65.29;97761.97;5059432;28;20436;-66
2021/12/13 11:04:40;;;;;;;6.33;3.90;;;;;;;12.01;64.86;97759.41;5068093;28;20427;-64
2021/12/13 11:07:09;;;;;;;5.83;3.90;;;;;;;11.86;64.97;97762.50;5059447;28;20531;-65
2021/12/13 11:09:37;;;;;;;7.40;3.90;;;;;;;11.93;64.84;97762.75;5065703;28;20425;-67
2021/12/13 11:12:14;;;;;;;4.47;3.13;;;;;;;12.01;64.91;97754.97;5057029;28;20463;-67
2021/12/13 11:14:41;;;;;;;4.20;3.30;;;;;;;11.90;65.38;97752.53;5065886;28;20431;-67
2021/12/13 11:17:12;;;;;;;4.23;2.73;;;;;;;12.05;64.98;97745.00;5056817;28;20467;-68
2021/12/13 11:19:39;;;;;;;2.83;2.60;;;;;;;12.05;64.56;97745.84;5063791;28;20457;-67
2021/12/13 11:22:09;;;;;;;4.80;3.90;;;;;;;11.88;64.94;97738.72;5067789;28;20470;-67
2021/12/13 11:24:37;;;;;;;4.10;3.40;;;;;;;11.87;64.69;97739.69;5076052;28;20431;-65
2021/12/13 11:27:08;;;;;;;4.63;3.67;;;;;;;12.01;64.86;97738.41;5057518;28;20448;-65
2021/12/13 11:29:35;;;;;;;4.77;3.57;;;;;;;12.19;64.45;97730.53;5062253;28;20456;-65
2021/12/13 11:32:29;;;;;;;4.37;3.57;;;;;;;12.46;63.69;97729.63;5062164;28;20484;-66
2021/12/13 11:35:06;;;;;;;2.87;2.10;;;;;;;12.48;62.91;97735.56;5061680;28;20428;-67
2021/12/13 11:37:56;;;;;;;3.97;3.03;;;;;;;12.65;62.31;97726.00;5069715;28;20452;-68
2021/12/13 11:40:40;;;;;;;2.83;2.60;;;;;;;12.58;62.75;97731.03;5068306;28;21093;-67
2021/12/13 11:43:30;;;;;;;2.63;2.40;;;;;;;12.66;61.81;97721.56;5067342;28;20875;-67
2021/12/13 11:46:11;;;;;;;2.77;2.37;;;;;;;12.83;61.30;97733.03;5063253;28;20553;-65
2021/12/13 11:49:10;;;;;;;2.67;1.80;;;;;;;13.01;60.76;97720.63;5062777;28;20961;-66
2021/12/13 11:52:16;;;;;;;3.50;2.97;;;;;;;12.87;60.87;97719.41;5074050;28;21125;-66
2021/12/13 11:55:26;;;;;;;11.33;3.23;;;;;;;12.68;62.12;97717.81;5071416;28;20436;-66
2021/12/13 11:58:24;;;;;;;4.43;3.50;;;;;;;12.73;62.04;97723.41;5072919;28;20451;-67
2021/12/13 12:01:08;;;;;;;3.80;2.93;;;;;;;12.66;61.63;97722.38;5045926;28;20577;-68
2021/12/13 12:04:06;;;;;;;7.60;4.30;;;;;;;12.55;62.73;97720.81;5056273;28;20426;-68
2021/12/13 12:07:09;;;;;;;5.03;3.47;;;;;;;12.84;61.88;97721.53;5070109;28;20464;-66
2021/12/13 12:10:03;;;;;;;6.80;3.30;;;;;;;12.95;60.62;97715.16;5063141;28;20424;-67
2021/12/13 12:12:51;;;;;;;7.00;4.20;;;;;;;13.00;60.90;97718.19;5073511;28;20421;-66
2021/12/13 12:15:18;;;;;;;6.63;4.60;;;;;;;13.02;60.56;97727.56;5073110;28;20504;-65
2021/12/13 12:17:44;;;;;;;4.17;3.77;;;;;;;12.71;61.71;97720.13;5063793;28;20499;-67